Time;durP1;ratioP1;P1;durP2;ratioP2;P2;SDS_P1;SDS_P2;PMS_P1;PMS_P2;Temp;Humidity;BMP_temperature;BMP_pressure;BME280_temperature;BME280_humidity;BME280_pressure;Samples;Min_cycle;Max_cycle;Signal;HPM_P1;HPM_P2
2022/04/13 00:00:14;;;;;;;9.93;4.45;;;;;;;;;;5032829;28;20049;-77
2022/04/13 00:02:40;;;;;;;9.40;4.20;;;;;;;;;;5033744;28;20021;-77
2022/04/13 00:05:06;;;;;;;9.68;4.55;;;;;;;;;;5032510;28;20371;-77
2022/04/13 00:07:31;;;;;;;7.93;4.20;;;;;;;;;;5033693;28;20056;-77
2022/04/13 00:09:57;;;;;;;8.07;4.15;;;;;;;;;;5033681;28;20394;-78
2022/04/13 00:12:22;;;;;;;7.15;3.88;;;;;;;;;;5033864;28;20033;-77
2022/04/13 00:14:48;;;;;;;8.93;3.63;;;;;;;;;;5033564;28;20029;-77
2022/04/13 00:17:13;;;;;;;8.15;4.28;;;;;;;;;;5032458;28;20421;-76
2022/04/13 00:19:38;;;;;;;8.48;4.22;;;;;;;;;;5034236;28;20108;-77
2022/04/13 00:22:04;;;;;;;8.95;4.32;;;;;;;;;;5033850;28;20049;-77
2022/04/13 00:24:29;;;;;;;7.97;4.28;;;;;;;;;;5033385;28;20032;-77
2022/04/13 00:26:55;;;;;;;8.43;4.13;;;;;;;;;;5032066;28;20048;-77
2022/04/13 00:29:20;;;;;;;8.18;3.97;;;;;;;;;;5033376;28;20026;-77
2022/04/13 00:31:45;;;;;;;9.63;4.20;;;;;;;;;;5033492;28;20108;-77
2022/04/13 00:34:10;;;;;;;8.93;4.18;;;;;;;;;;5033387;28;20095;-77
2022/04/13 00:36:36;;;;;;;8.03;3.90;;;;;;;;;;5033082;28;20041;-77
2022/04/13 00:39:01;;;;;;;9.23;4.30;;;;;;;;;;5033777;28;20251;-77
2022/04/13 00:41:27;;;;;;;11.02;4.65;;;;;;;;;;5033174;28;20482;-76
2022/04/13 00:44:06;;;;;;;8.48;4.22;;;;;;;;;;5033293;28;20083;-78
2022/04/13 00:46:33;;;;;;;7.53;4.20;;;;;;;;;;5033185;28;20540;-77
2022/04/13 00:48:59;;;;;;;8.48;3.80;;;;;;;;;;5031966;28;20032;-78
2022/04/13 00:51:25;;;;;;;7.70;4.00;;;;;;;;;;5033150;28;20029;-77
2022/04/13 00:53:51;;;;;;;9.38;4.65;;;;;;;;;;5033292;28;20099;-78
2022/04/13 00:56:23;;;;;;;9.45;4.13;;;;;;;;;;5033319;28;20029;-77
2022/04/13 00:58:51;;;;;;;7.35;4.15;;;;;;;;;;5032304;28;20104;-78
2022/04/13 01:01:17;;;;;;;9.35;4.82;;;;;;;;;;5033464;28;20057;-77
2022/04/13 01:03:43;;;;;;;11.45;4.07;;;;;;;;;;5033311;28;20517;-77
2022/04/13 01:06:10;;;;;;;10.30;4.57;;;;;;;;;;5034841;28;20425;-78
2022/04/13 01:08:37;;;;;;;8.75;4.65;;;;;;;;;;5036956;28;20025;-77
2022/04/13 01:11:03;;;;;;;9.98;4.65;;;;;;;;;;5037071;28;20139;-77
2022/04/13 01:13:28;;;;;;;8.30;4.85;;;;;;;;;;5037095;28;20490;-77
2022/04/13 01:15:54;;;;;;;12.30;4.68;;;;;;;;;;5036825;28;20033;-77
2022/04/13 01:18:19;;;;;;;10.25;5.00;;;;;;;;;;5036907;28;20510;-76
2022/04/13 01:20:52;;;;;;;12.05;4.93;;;;;;;;;;5037072;28;20025;-76
2022/04/13 01:23:19;;;;;;;10.05;4.38;;;;;;;;;;5036669;28;20026;-77
2022/04/13 01:25:49;;;;;;;9.75;4.78;;;;;;;;;;5036886;28;20037;-77
2022/04/13 01:28:14;;;;;;;11.32;4.63;;;;;;;;;;5036616;28;20017;-77
2022/04/13 01:30:39;;;;;;;11.60;4.55;;;;;;;;;;5036868;28;20079;-77
2022/04/13 01:33:06;;;;;;;11.05;5.13;;;;;;;;;;5036298;28;20501;-76
2022/04/13 01:35:31;;;;;;;7.45;4.35;;;;;;;;;;5036501;28;20041;-77
2022/04/13 01:37:56;;;;;;;8.45;4.47;;;;;;;;;;5036772;28;20032;-78
2022/04/13 01:40:21;;;;;;;12.65;4.82;;;;;;;;;;5037268;28;20018;-77
2022/04/13 01:42:49;;;;;;;8.73;4.40;;;;;;;;;;5037499;28;20036;-78
2022/04/13 01:45:19;;;;;;;8.82;4.30;;;;;;;;;;5036852;28;20394;-77
2022/04/13 01:47:48;;;;;;;8.20;4.53;;;;;;;;;;5034914;28;20475;-77
2022/04/13 01:50:16;;;;;;;10.27;4.60;;;;;;;;;;5036483;28;20029;-77
2022/04/13 01:52:43;;;;;;;9.07;4.95;;;;;;;;;;5036354;28;20053;-77
2022/04/13 01:55:09;;;;;;;10.35;5.07;;;;;;;;;;5035988;28;20057;-77
2022/04/13 01:57:35;;;;;;;13.55;4.57;;;;;;;;;;5035985;28;20057;-77
2022/04/13 02:00:00;;;;;;;8.43;4.28;;;;;;;;;;5036090;28;20108;-77
2022/04/13 02:02:26;;;;;;;9.95;5.00;;;;;;;;;;5035929;28;20067;-77
2022/04/13 02:04:51;;;;;;;12.18;5.47;;;;;;;;;;5035906;28;20045;-77
2022/04/13 02:07:16;;;;;;;10.95;4.68;;;;;;;;;;5035979;28;20436;-77
2022/04/13 02:09:41;;;;;;;12.10;5.17;;;;;;;;;;5036142;28;20064;-77
2022/04/13 02:12:07;;;;;;;9.77;4.90;;;;;;;;;;5035838;28;20289;-77
2022/04/13 02:14:33;;;;;;;11.10;5.00;;;;;;;;;;5034722;28;20267;-77
2022/04/13 02:16:58;;;;;;;10.57;4.70;;;;;;;;;;5035628;28;20047;-77
2022/04/13 02:19:23;;;;;;;9.68;4.90;;;;;;;;;;5035624;28;20333;-77
2022/04/13 02:21:48;;;;;;;9.37;4.73;;;;;;;;;;5036644;28;20033;-77
2022/04/13 02:24:14;;;;;;;8.85;4.57;;;;;;;;;;5036348;28;20262;-78
2022/04/13 02:26:39;;;;;;;13.18;4.97;;;;;;;;;;5038222;28;20462;-78
2022/04/13 02:29:05;;;;;;;11.32;4.57;;;;;;;;;;5035816;28;20029;-77
2022/04/13 02:31:30;;;;;;;9.80;4.75;;;;;;;;;;5034379;28;20025;-77
2022/04/13 02:33:56;;;;;;;10.65;5.15;;;;;;;;;;5035728;28;20025;-77
2022/04/13 02:36:22;;;;;;;11.27;5.10;;;;;;;;;;5035554;28;20033;-78
2022/04/13 02:38:47;;;;;;;9.98;4.75;;;;;;;;;;5035963;28;20070;-77
2022/04/13 02:41:12;;;;;;;8.55;4.30;;;;;;;;;;5037364;28;20113;-77
2022/04/13 02:43:39;;;;;;;8.35;5.13;;;;;;;;;;5036348;28;20025;-77
2022/04/13 02:46:04;;;;;;;11.57;4.68;;;;;;;;;;5035464;28;20051;-77
2022/04/13 02:48:29;;;;;;;11.33;4.70;;;;;;;;;;5035273;28;20029;-77
2022/04/13 02:50:56;;;;;;;9.50;4.83;;;;;;;;;;5035121;28;20270;-76
2022/04/13 02:53:22;;;;;;;12.95;4.80;;;;;;;;;;5035309;28;20258;-77
2022/04/13 02:55:48;;;;;;;12.25;5.35;;;;;;;;;;5035082;28;20040;-77
2022/04/13 02:58:13;;;;;;;11.55;4.93;;;;;;;;;;5035236;28;20026;-77
2022/04/13 03:00:39;;;;;;;10.88;4.85;;;;;;;;;;5035432;28;20493;-77
2022/04/13 03:03:04;;;;;;;10.50;5.32;;;;;;;;;;5033522;28;20018;-77
2022/04/13 03:05:30;;;;;;;11.95;4.97;;;;;;;;;;5034821;28;20024;-77
2022/04/13 03:07:55;;;;;;;11.23;4.72;;;;;;;;;;5034583;28;20018;-78
2022/04/13 03:10:20;;;;;;;7.75;4.32;;;;;;;;;;5034705;28;20105;-78
2022/04/13 03:12:46;;;;;;;8.48;4.50;;;;;;;;;;5034925;28;20540;-77
2022/04/13 03:15:11;;;;;;;10.40;4.93;;;;;;;;;;5036471;28;20029;-77
2022/04/13 03:17:37;;;;;;;9.10;4.80;;;;;;;;;;5035019;28;20025;-77
2022/04/13 03:20:03;;;;;;;10.68;4.70;;;;;;;;;;5035184;28;20025;-77
2022/04/13 03:22:28;;;;;;;12.88;5.22;;;;;;;;;;5033151;28;20029;-77
2022/04/13 03:24:53;;;;;;;8.68;4.93;;;;;;;;;;5034426;28;20030;-77
2022/04/13 03:27:19;;;;;;;10.00;4.25;;;;;;;;;;5032998;28;20025;-77
2022/04/13 03:29:44;;;;;;;9.77;4.15;;;;;;;;;;5033965;28;20125;-77
2022/04/13 03:32:10;;;;;;;11.63;5.38;;;;;;;;;;5034244;28;20025;-77
2022/04/13 03:34:35;;;;;;;7.68;3.83;;;;;;;;;;5034348;28;20433;-78
2022/04/13 03:37:00;;;;;;;11.48;4.95;;;;;;;;;;5033972;28;20030;-77
2022/04/13 03:39:26;;;;;;;10.05;4.35;;;;;;;;;;5034135;28;20032;-77
2022/04/13 03:41:52;;;;;;;10.10;4.53;;;;;;;;;;5034306;28;20033;-76
2022/04/13 03:44:17;;;;;;;10.20;4.40;;;;;;;;;;5034121;28;20096;-77
2022/04/13 03:46:42;;;;;;;11.50;5.07;;;;;;;;;;5034071;28;20521;-77
2022/04/13 03:49:08;;;;;;;11.18;3.60;;;;;;;;;;5034034;28;20755;-77
2022/04/13 03:51:34;;;;;;;9.27;4.30;;;;;;;;;;5033912;28;20398;-77
2022/04/13 03:54:00;;;;;;;10.85;4.88;;;;;;;;;;5033819;28;20026;-77
2022/04/13 03:56:25;;;;;;;8.30;4.75;;;;;;;;;;5033720;28;20029;-77
2022/04/13 03:58:50;;;;;;;10.30;5.22;;;;;;;;;;5034020;28;20061;-77
2022/04/13 04:01:16;;;;;;;11.00;5.20;;;;;;;;;;5033735;28;20029;-77
2022/04/13 04:03:41;;;;;;;9.07;4.75;;;;;;;;;;5033703;28;20257;-77
2022/04/13 04:06:07;;;;;;;10.27;5.45;;;;;;;;;;5032355;28;20068;-78
2022/04/13 04:08:32;;;;;;;8.77;4.55;;;;;;;;;;5033680;28;20390;-78
2022/04/13 04:10:58;;;;;;;8.70;4.72;;;;;;;;;;5033750;28;20100;-76
2022/04/13 04:13:23;;;;;;;10.10;5.00;;;;;;;;;;5033945;28;20052;-78
2022/04/13 04:15:48;;;;;;;10.85;5.00;;;;;;;;;;5034280;28;20032;-77
2022/04/13 04:18:15;;;;;;;7.40;4.55;;;;;;;;;;5033725;28;20037;-77
2022/04/13 04:20:40;;;;;;;9.90;4.55;;;;;;;;;;5033476;28;20112;-76
2022/04/13 04:23:05;;;;;;;11.35;5.53;;;;;;;;;;5033481;28;20104;-76
2022/04/13 04:25:30;;;;;;;12.23;4.23;;;;;;;;;;5033506;28;20057;-77
2022/04/13 04:27:56;;;;;;;9.68;4.32;;;;;;;;;;5033403;28;20321;-77
2022/04/13 04:30:21;;;;;;;10.77;4.60;;;;;;;;;;5033547;28;20029;-76
2022/04/13 04:32:46;;;;;;;10.18;5.20;;;;;;;;;;5033139;28;20500;-77
2022/04/13 04:35:11;;;;;;;11.93;4.90;;;;;;;;;;5033101;28;20029;-77
2022/04/13 04:37:37;;;;;;;9.30;5.20;;;;;;;;;;5033162;28;20711;-76
2022/04/13 04:40:02;;;;;;;11.50;5.03;;;;;;;;;;5033177;28;20052;-77
2022/04/13 04:42:28;;;;;;;11.63;5.53;;;;;;;;;;5031685;28;20029;-78
2022/04/13 04:44:58;;;;;;;9.75;5.07;;;;;;;;;;5031781;28;20024;-77
2022/04/13 04:47:24;;;;;;;11.50;5.63;;;;;;;;;;5032989;28;20021;-77
2022/04/13 04:49:49;;;;;;;12.52;4.80;;;;;;;;;;5033072;28;20105;-77
2022/04/13 04:52:15;;;;;;;10.55;4.93;;;;;;;;;;5031831;28;20443;-76
2022/04/13 04:54:40;;;;;;;11.48;4.05;;;;;;;;;;5031853;28;20026;-78
2022/04/13 04:57:06;;;;;;;8.23;4.68;;;;;;;;;;5032469;28;20026;-78
2022/04/13 04:59:31;;;;;;;7.50;3.55;;;;;;;;;;5034492;28;20112;-77
2022/04/13 05:01:56;;;;;;;11.50;5.30;;;;;;;;;;5031511;28;20044;-77
2022/04/13 05:04:21;;;;;;;8.43;4.43;;;;;;;;;;5032805;28;20026;-77
2022/04/13 05:06:47;;;;;;;10.60;4.80;;;;;;;;;;5033201;28;20023;-77
2022/04/13 05:09:12;;;;;;;10.50;5.03;;;;;;;;;;5033039;28;20258;-77
2022/04/13 05:11:37;;;;;;;10.73;4.60;;;;;;;;;;5033154;28;20801;-77
2022/04/13 05:14:03;;;;;;;10.07;3.75;;;;;;;;;;5033325;28;20282;-77
2022/04/13 05:16:28;;;;;;;15.43;5.25;;;;;;;;;;5032665;28;20022;-76
2022/04/13 05:18:53;;;;;;;12.60;5.75;;;;;;;;;;5033038;28;20383;-77
2022/04/13 05:21:18;;;;;;;10.27;5.30;;;;;;;;;;5032968;28;20032;-78
2022/04/13 05:23:44;;;;;;;12.63;5.13;;;;;;;;;;5032365;28;20025;-77
2022/04/13 05:26:10;;;;;;;12.55;5.15;;;;;;;;;;5032499;28;20104;-76
2022/04/13 05:28:36;;;;;;;8.05;4.22;;;;;;;;;;5030716;28;20033;-76
2022/04/13 05:31:01;;;;;;;13.52;5.82;;;;;;;;;;5032099;28;20390;-76
2022/04/13 05:33:26;;;;;;;11.63;5.18;;;;;;;;;;5030485;28;20500;-76
2022/04/13 05:35:52;;;;;;;9.75;4.97;;;;;;;;;;5032827;28;20026;-76
2022/04/13 05:38:17;;;;;;;12.35;5.35;;;;;;;;;;5032082;28;20022;-76
2022/04/13 05:40:43;;;;;;;10.73;4.78;;;;;;;;;;5032444;28;20061;-77
2022/04/13 05:43:08;;;;;;;10.18;5.00;;;;;;;;;;5032515;28;20479;-77
2022/04/13 05:45:33;;;;;;;11.27;5.38;;;;;;;;;;5033321;28;20056;-77
2022/04/13 05:47:59;;;;;;;11.27;5.85;;;;;;;;;;5032030;28;20036;-77
2022/04/13 05:50:24;;;;;;;9.88;5.75;;;;;;;;;;5033075;28;20029;-77
2022/04/13 05:52:49;;;;;;;17.38;5.68;;;;;;;;;;5033961;28;20413;-76
2022/04/13 05:55:14;;;;;;;10.70;4.88;;;;;;;;;;5035243;28;20021;-78
2022/04/13 05:57:40;;;;;;;10.98;5.55;;;;;;;;;;5036325;28;20117;-77
2022/04/13 06:00:07;;;;;;;12.88;5.82;;;;;;;;;;5035946;28;20037;-78
2022/04/13 06:02:35;;;;;;;9.88;5.53;;;;;;;;;;5036164;28;20115;-77
2022/04/13 06:05:00;;;;;;;14.13;5.75;;;;;;;;;;5036784;28;20061;-78
2022/04/13 06:07:25;;;;;;;11.30;5.45;;;;;;;;;;5037654;28;20022;-76
2022/04/13 06:09:50;;;;;;;10.95;5.57;;;;;;;;;;5036214;28;20044;-76
2022/04/13 06:12:23;;;;;;;14.70;5.43;;;;;;;;;;5036050;28;20129;-77
2022/04/13 06:14:49;;;;;;;10.82;5.45;;;;;;;;;;5036778;28;20337;-76
2022/04/13 06:17:14;;;;;;;12.20;5.15;;;;;;;;;;5034240;28;20108;-77
2022/04/13 06:19:39;;;;;;;10.37;5.67;;;;;;;;;;5036335;28;20033;-76
2022/04/13 06:22:05;;;;;;;11.63;5.78;;;;;;;;;;5035558;28;20274;-77
2022/04/13 06:24:30;;;;;;;9.10;5.25;;;;;;;;;;5034268;28;20469;-77
2022/04/13 06:26:55;;;;;;;10.90;4.57;;;;;;;;;;5034156;28;20022;-77
2022/04/13 06:29:20;;;;;;;11.98;6.25;;;;;;;;;;5035526;28;20298;-76
2022/04/13 06:31:45;;;;;;;10.50;5.90;;;;;;;;;;5035629;28;20108;-76
2022/04/13 06:34:11;;;;;;;14.03;6.77;;;;;;;;;;5035282;28;20386;-76
2022/04/13 06:36:36;;;;;;;11.55;5.35;;;;;;;;;;5035070;28;20660;-76
2022/04/13 06:39:01;;;;;;;12.07;5.87;;;;;;;;;;5035258;28;20017;-76
2022/04/13 06:41:27;;;;;;;9.77;5.57;;;;;;;;;;5035158;28;20337;-77
2022/04/13 06:43:53;;;;;;;12.15;5.72;;;;;;;;;;5035436;28;20025;-77
2022/04/13 06:46:19;;;;;;;10.93;5.72;;;;;;;;;;5034915;28;20021;-76
2022/04/13 06:48:44;;;;;;;11.55;5.60;;;;;;;;;;5035011;28;20096;-76
2022/04/13 06:51:10;;;;;;;10.70;5.80;;;;;;;;;;5035188;28;20025;-77
2022/04/13 06:53:35;;;;;;;11.90;5.90;;;;;;;;;;5035441;28;20075;-77
2022/04/13 06:56:00;;;;;;;11.07;6.03;;;;;;;;;;5034993;28;20275;-78
2022/04/13 06:58:26;;;;;;;15.48;6.03;;;;;;;;;;5034943;28;20609;-78
2022/04/13 07:00:51;;;;;;;11.40;5.43;;;;;;;;;;5034741;28;20419;-76
2022/04/13 07:03:16;;;;;;;11.88;5.85;;;;;;;;;;5032660;28;20036;-77
2022/04/13 07:05:41;;;;;;;12.97;5.80;;;;;;;;;;5034852;28;20029;-77
2022/04/13 07:08:07;;;;;;;15.18;6.32;;;;;;;;;;5034814;28;20247;-78
2022/04/13 07:10:33;;;;;;;11.52;5.72;;;;;;;;;;5034527;28;20025;-78
2022/04/13 07:12:59;;;;;;;10.93;5.22;;;;;;;;;;5034727;28;20096;-77
2022/04/13 07:15:25;;;;;;;12.10;5.47;;;;;;;;;;5035351;28;20542;-78
2022/04/13 07:17:50;;;;;;;11.82;5.78;;;;;;;;;;5033829;28;20390;-77
2022/04/13 07:20:17;;;;;;;12.93;5.47;;;;;;;;;;5034986;28;20387;-77
2022/04/13 07:23:00;;;;;;;10.63;5.05;;;;;;;;;;5033484;28;20025;-77
2022/04/13 07:25:25;;;;;;;16.53;5.43;;;;;;;;;;5034891;28;20033;-78
2022/04/13 07:27:51;;;;;;;11.98;5.60;;;;;;;;;;5034325;28;20300;-77
2022/04/13 07:30:17;;;;;;;11.93;5.95;;;;;;;;;;5034812;28;20036;-77
2022/04/13 07:32:45;;;;;;;10.30;5.28;;;;;;;;;;5034244;28;20479;-77
2022/04/13 07:35:10;;;;;;;11.02;5.15;;;;;;;;;;5034392;28;20025;-78
2022/04/13 07:37:35;;;;;;;13.07;5.80;;;;;;;;;;5034797;28;20463;-77
2022/04/13 07:40:00;;;;;;;10.70;6.07;;;;;;;;;;5034762;28;20075;-77
2022/04/13 07:42:27;;;;;;;12.63;6.15;;;;;;;;;;5034365;28;20116;-77
2022/04/13 07:44:55;;;;;;;9.77;4.72;;;;;;;;;;5034172;28;20025;-78
2022/04/13 07:47:21;;;;;;;12.82;6.38;;;;;;;;;;5034145;28;20443;-78
2022/04/13 07:49:47;;;;;;;13.93;5.70;;;;;;;;;;5034961;28;20098;-77
2022/04/13 07:52:13;;;;;;;9.27;5.30;;;;;;;;;;5035099;28;20028;-78
2022/04/13 07:54:38;;;;;;;11.35;5.93;;;;;;;;;;5034871;28;20061;-78
2022/04/13 07:57:04;;;;;;;13.27;6.07;;;;;;;;;;5033786;28;20056;-77
2022/04/13 07:59:29;;;;;;;11.88;6.18;;;;;;;;;;5034497;28;20025;-78
2022/04/13 08:01:54;;;;;;;11.32;5.63;;;;;;;;;;5033184;28;20499;-77
2022/04/13 08:04:20;;;;;;;14.23;5.53;;;;;;;;;;5034578;28;20386;-77
2022/04/13 08:06:45;;;;;;;10.52;5.88;;;;;;;;;;5034456;28;20101;-78
2022/04/13 08:09:11;;;;;;;12.30;5.60;;;;;;;;;;5035185;28;20036;-77
2022/04/13 08:11:36;;;;;;;11.00;5.78;;;;;;;;;;5033677;28;20119;-77
2022/04/13 08:14:01;;;;;;;10.67;6.07;;;;;;;;;;5033558;28;20021;-77
2022/04/13 08:16:26;;;;;;;10.48;5.70;;;;;;;;;;5033973;28;20278;-78
2022/04/13 08:18:52;;;;;;;9.65;5.53;;;;;;;;;;5033369;28;20105;-78
2022/04/13 08:21:17;;;;;;;9.83;5.70;;;;;;;;;;5033968;28;20364;-77
2022/04/13 08:23:42;;;;;;;12.13;5.65;;;;;;;;;;5032907;28;20690;-77
2022/04/13 08:26:08;;;;;;;12.23;5.50;;;;;;;;;;5033959;28;20024;-78
2022/04/13 08:28:33;;;;;;;10.35;5.35;;;;;;;;;;5032306;28;20338;-76
2022/04/13 08:30:58;;;;;;;13.52;6.28;;;;;;;;;;5034797;28;20056;-79
2022/04/13 08:33:24;;;;;;;11.57;5.80;;;;;;;;;;5034799;28;20040;-78
2022/04/13 08:35:49;;;;;;;11.63;5.80;;;;;;;;;;5034589;28;20336;-78
2022/04/13 08:38:15;;;;;;;10.97;5.73;;;;;;;;;;5033634;28;20363;-77
2022/04/13 08:40:50;;;;;;;9.27;4.77;;;;;;;;;;5033945;28;20608;-77
2022/04/13 08:43:21;;;;;;;12.32;5.60;;;;;;;;;;5034229;28;20582;-77
2022/04/13 08:45:54;;;;;;;10.63;5.15;;;;;;;;;;5034248;28;20064;-78
2022/04/13 08:48:24;;;;;;;12.95;5.40;;;;;;;;;;5033575;28;20443;-77
2022/04/13 08:50:57;;;;;;;14.65;5.00;;;;;;;;;;5034624;28;20045;-77
2022/04/13 08:53:28;;;;;;;11.52;5.03;;;;;;;;;;5034049;28;20141;-78
2022/04/13 08:55:54;;;;;;;10.93;5.53;;;;;;;;;;5033529;28;20048;-77
2022/04/13 08:58:34;;;;;;;10.98;5.68;;;;;;;;;;5034266;28;20467;-78
2022/04/13 09:01:05;;;;;;;10.15;5.30;;;;;;;;;;5034594;28;20066;-79
2022/04/13 09:03:37;;;;;;;14.98;5.25;;;;;;;;;;5032563;28;20033;-78
2022/04/13 09:06:05;;;;;;;11.10;5.50;;;;;;;;;;5034718;28;20109;-79
2022/04/13 09:08:52;;;;;;;11.48;5.50;;;;;;;;;;5031634;28;20024;-77
2022/04/13 09:11:20;;;;;;;10.05;5.15;;;;;;;;;;5033768;28;20402;-78
2022/04/13 09:13:45;;;;;;;10.75;5.53;;;;;;;;;;5033640;28;20028;-77
2022/04/13 09:16:12;;;;;;;12.57;5.53;;;;;;;;;;5033847;28;20041;-76
2022/04/13 09:18:37;;;;;;;12.50;4.90;;;;;;;;;;5033286;28;20049;-77
2022/04/13 09:21:03;;;;;;;10.35;5.55;;;;;;;;;;5033370;28;20063;-78
2022/04/13 09:23:29;;;;;;;11.82;5.22;;;;;;;;;;5034405;28;20067;-77
2022/04/13 09:25:56;;;;;;;9.77;4.60;;;;;;;;;;5034162;28;20014;-76
2022/04/13 09:28:22;;;;;;;8.05;4.65;;;;;;;;;;5036196;28;20540;-73
2022/04/13 09:30:47;;;;;;;10.65;5.07;;;;;;;;;;5036507;28;20025;-74
2022/04/13 09:33:12;;;;;;;7.80;4.03;;;;;;;;;;5036505;28;20025;-73
2022/04/13 09:35:38;;;;;;;11.23;4.50;;;;;;;;;;5036722;28;20462;-73
2022/04/13 09:38:04;;;;;;;9.50;5.15;;;;;;;;;;5036145;28;20096;-73
2022/04/13 09:40:35;;;;;;;9.25;4.97;;;;;;;;;;5036144;28;20040;-74
2022/04/13 09:43:11;;;;;;;11.30;5.72;;;;;;;;;;5036674;28;20025;-75
2022/04/13 09:45:45;;;;;;;13.52;5.57;;;;;;;;;;5036380;28;20033;-77
2022/04/13 09:48:13;;;;;;;11.93;5.30;;;;;;;;;;5036417;28;20030;-77
2022/04/13 09:50:39;;;;;;;10.25;4.88;;;;;;;;;;5035938;28;20038;-77
2022/04/13 09:53:06;;;;;;;8.65;4.88;;;;;;;;;;5035047;28;20080;-77
2022/04/13 09:55:43;;;;;;;10.43;4.80;;;;;;;;;;5034655;28;20025;-78
2022/04/13 09:58:13;;;;;;;8.70;4.65;;;;;;;;;;5035975;28;20017;-77
2022/04/13 10:00:40;;;;;;;10.07;4.97;;;;;;;;;;5035744;28;20031;-77
2022/04/13 10:03:08;;;;;;;9.18;4.97;;;;;;;;;;5035674;28;20017;-77
2022/04/13 10:05:33;;;;;;;14.30;6.55;;;;;;;;;;5034515;28;20028;-78
2022/04/13 10:08:06;;;;;;;9.68;5.05;;;;;;;;;;5035658;28;20029;-77
2022/04/13 10:10:32;;;;;;;9.53;4.43;;;;;;;;;;5036224;28;20426;-77
2022/04/13 10:12:58;;;;;;;9.57;4.85;;;;;;;;;;5036428;28;20025;-78
2022/04/13 10:15:23;;;;;;;9.10;4.32;;;;;;;;;;5036201;28;20021;-77
2022/04/13 10:17:48;;;;;;;7.78;4.25;;;;;;;;;;5035481;28;20029;-77
2022/04/13 10:20:14;;;;;;;8.10;4.30;;;;;;;;;;5036176;28;20029;-77
2022/04/13 10:22:59;;;;;;;7.75;4.30;;;;;;;;;;5037163;28;20394;-78
2022/04/13 10:25:26;;;;;;;7.70;3.65;;;;;;;;;;5036429;28;20026;-77
2022/04/13 10:28:00;;;;;;;9.63;4.25;;;;;;;;;;5035391;28;20105;-77
2022/04/13 10:30:27;;;;;;;8.27;4.50;;;;;;;;;;5033972;28;20112;-77
2022/04/13 10:32:58;;;;;;;15.85;4.38;;;;;;;;;;5035301;28;20099;-77
2022/04/13 10:35:24;;;;;;;8.20;4.00;;;;;;;;;;5035701;28;20026;-76
2022/04/13 10:37:51;;;;;;;7.03;3.92;;;;;;;;;;5035467;28;20049;-77
2022/04/13 10:40:17;;;;;;;8.82;4.07;;;;;;;;;;5033737;28;20033;-76
2022/04/13 10:42:44;;;;;;;8.38;3.60;;;;;;;;;;5036082;28;20391;-78
2022/04/13 10:45:11;;;;;;;8.00;3.65;;;;;;;;;;5036468;28;20536;-76
2022/04/13 10:47:56;;;;;;;9.18;3.78;;;;;;;;;;5034757;28;20036;-77
2022/04/13 10:50:36;;;;;;;7.18;3.80;;;;;;;;;;5035731;28;20036;-77
2022/04/13 10:53:23;;;;;;;7.13;3.38;;;;;;;;;;5035862;28;20078;-76
2022/04/13 10:56:10;;;;;;;4.95;2.97;;;;;;;;;;5034997;28;20104;-77
2022/04/13 10:59:10;;;;;;;6.55;3.22;;;;;;;;;;5034090;28;20063;-78
2022/04/13 11:01:45;;;;;;;6.68;3.30;;;;;;;;;;5035075;28;20049;-77
2022/04/13 11:04:11;;;;;;;5.72;3.08;;;;;;;;;;5033501;28;20402;-76
2022/04/13 11:06:39;;;;;;;5.95;3.30;;;;;;;;;;5034368;28;20036;-76
2022/04/13 11:09:08;;;;;;;5.75;3.10;;;;;;;;;;5033463;28;20397;-77
2022/04/13 11:11:35;;;;;;;5.50;2.97;;;;;;;;;;5035119;28;20021;-77
2022/04/13 11:14:15;;;;;;;5.57;3.20;;;;;;;;;;5034898;28;20022;-77
2022/04/13 11:16:40;;;;;;;5.20;3.30;;;;;;;;;;5035029;28;20037;-77
2022/04/13 11:19:05;;;;;;;5.30;3.00;;;;;;;;;;5035119;28;20024;-77
2022/04/13 11:21:31;;;;;;;5.27;2.73;;;;;;;;;;5035829;28;20045;-77
2022/04/13 11:23:57;;;;;;;6.75;3.22;;;;;;;;;;5035100;28;20036;-77
2022/04/13 11:26:26;;;;;;;6.25;3.28;;;;;;;;;;5034763;28;20390;-77
2022/04/13 11:29:12;;;;;;;6.15;3.17;;;;;;;;;;5034319;28;20033;-77
2022/04/13 11:31:59;;;;;;;6.15;3.10;;;;;;;;;;5034282;28;20110;-76
2022/04/13 11:34:28;;;;;;;6.47;3.50;;;;;;;;;;5034759;28;20102;-78
2022/04/13 11:36:58;;;;;;;6.60;3.60;;;;;;;;;;5034467;28;20079;-78
2022/04/13 11:39:49;;;;;;;7.32;3.60;;;;;;;;;;5034987;28;20585;-78
2022/04/13 11:42:26;;;;;;;6.28;3.28;;;;;;;;;;5034615;28;20053;-77
2022/04/13 11:45:00;;;;;;;7.03;3.08;;;;;;;;;;5034347;28;20032;-76
2022/04/13 11:47:35;;;;;;;;;;;;;;;;;;5034691;28;20098;-77
2022/04/13 11:50:03;;;;;;;7.70;3.60;;;;;;;;;;5034345;28;20048;-78
2022/04/13 11:52:43;;;;;;;8.05;3.38;;;;;;;;;;5033806;28;20026;-77
2022/04/13 11:55:20;;;;;;;9.35;3.72;;;;;;;;;;5034197;28;20168;-77
2022/04/13 11:58:08;;;;;;;7.20;3.58;;;;;;;;;;5034166;28;20026;-77
2022/04/13 12:00:44;;;;;;;9.48;4.13;;;;;;;;;;5030800;28;20041;-75
2022/04/13 12:03:17;;;;;;;8.65;3.90;;;;;;;;;;5034155;28;20463;-77
2022/04/13 12:05:47;;;;;;;8.82;3.95;;;;;;;;;;5033515;28;20479;-77
2022/04/13 12:08:27;;;;;;;9.00;3.88;;;;;;;;;;5033727;28;20033;-78
2022/04/13 12:11:00;;;;;;;5.63;3.53;;;;;;;;;;5033760;28;20491;-77
2022/04/13 12:13:26;;;;;;;9.98;3.72;;;;;;;;;;5034026;28;20033;-77
2022/04/13 12:15:54;;;;;;;6.47;3.42;;;;;;;;;;5033548;28;20083;-77
2022/04/13 12:18:24;;;;;;;8.60;3.58;;;;;;;;;;5033506;28;20021;-76
2022/04/13 12:20:51;;;;;;;7.15;3.47;;;;;;;;;;5033532;28;20033;-77
2022/04/13 12:23:27;;;;;;;10.73;4.30;;;;;;;;;;5033956;28;20390;-77
2022/04/13 12:25:54;;;;;;;9.85;3.97;;;;;;;;;;5033864;28;20017;-77
2022/04/13 12:28:22;;;;;;;9.55;4.05;;;;;;;;;;5033496;28;20022;-77
2022/04/13 12:31:08;;;;;;;8.13;3.20;;;;;;;;;;5033466;28;20475;-77
2022/04/13 12:33:34;;;;;;;8.13;3.85;;;;;;;;;;5033957;28;20479;-78
2022/04/13 12:36:05;;;;;;;6.93;3.60;;;;;;;;;;5033374;28;20040;-77
2022/04/13 12:38:38;;;;;;;8.23;4.00;;;;;;;;;;5033046;28;20079;-78
2022/04/13 12:41:15;;;;;;;10.63;3.95;;;;;;;;;;5033458;28;20467;-77
2022/04/13 12:43:43;;;;;;;8.25;3.95;;;;;;;;;;5032569;28;20075;-76
2022/04/13 12:46:17;;;;;;;7.38;3.40;;;;;;;;;;5032766;28;20018;-77
2022/04/13 12:48:45;;;;;;;7.20;3.58;;;;;;;;;;5032881;28;20028;-77
2022/04/13 12:51:11;;;;;;;8.38;3.88;;;;;;;;;;5032778;28;20113;-76
2022/04/13 12:53:45;;;;;;;6.43;3.47;;;;;;;;;;5033040;28;20452;-77
2022/04/13 12:56:13;;;;;;;12.32;4.50;;;;;;;;;;5032882;28;20363;-77
2022/04/13 12:58:40;;;;;;;6.70;3.83;;;;;;;;;;5033281;28;20413;-77
2022/04/13 13:01:06;;;;;;;8.90;4.10;;;;;;;;;;5033651;28;20056;-77
2022/04/13 13:03:38;;;;;;;7.25;3.63;;;;;;;;;;5037241;28;20033;-76
2022/04/13 13:06:10;;;;;;;6.85;3.67;;;;;;;;;;5037229;28;20162;-78
2022/04/13 13:08:50;;;;;;;8.23;4.05;;;;;;;;;;5037145;28;20561;-76
2022/04/13 13:11:16;;;;;;;10.43;4.65;;;;;;;;;;5037031;28;20025;-77
2022/04/13 13:13:42;;;;;;;7.15;4.20;;;;;;;;;;5037118;28;20144;-78
2022/04/13 13:16:07;;;;;;;8.57;4.30;;;;;;;;;;5036372;28;20537;-77
2022/04/13 13:18:33;;;;;;;9.35;4.40;;;;;;;;;;5036751;28;20048;-78
2022/04/13 13:20:59;;;;;;;8.02;4.30;;;;;;;;;;5036798;28;20474;-77
2022/04/13 13:23:29;;;;;;;11.32;5.68;;;;;;;;;;5036925;28;20021;-77
2022/04/13 13:25:57;;;;;;;9.43;4.75;;;;;;;;;;5036728;28;20368;-78
2022/04/13 13:28:27;;;;;;;8.40;4.60;;;;;;;;;;5036430;28;20022;-77
2022/04/13 13:30:55;;;;;;;9.68;4.90;;;;;;;;;;5037029;28;20028;-77
2022/04/13 13:33:20;;;;;;;9.73;5.28;;;;;;;;;;5036423;28;20021;-78
2022/04/13 13:35:45;;;;;;;9.82;4.60;;;;;;;;;;5035126;28;20036;-77
2022/04/13 13:38:13;;;;;;;13.40;5.80;;;;;;;;;;5036379;28;20128;-76
2022/04/13 13:40:41;;;;;;;10.27;4.43;;;;;;;;;;5036384;28;20057;-77
2022/04/13 13:43:15;;;;;;;10.38;5.00;;;;;;;;;;5037076;28;20418;-77
2022/04/13 13:45:45;;;;;;;16.67;5.78;;;;;;;;;;5036672;28;20040;-77
2022/04/13 13:48:12;;;;;;;10.18;5.00;;;;;;;;;;5035965;28;20073;-77
2022/04/13 13:50:40;;;;;;;11.73;5.35;;;;;;;;;;5036416;28;20616;-78
2022/04/13 13:53:07;;;;;;;12.13;5.53;;;;;;;;;;5035544;28;20040;-77
2022/04/13 13:55:33;;;;;;;9.43;4.68;;;;;;;;;;5035249;28;20064;-77
2022/04/13 13:58:00;;;;;;;10.88;5.07;;;;;;;;;;5036731;28;20037;-78
2022/04/13 14:00:28;;;;;;;12.73;5.40;;;;;;;;;;5036585;28;20450;-77
2022/04/13 14:02:54;;;;;;;15.90;6.22;;;;;;;;;;5034571;28;20053;-75
2022/04/13 14:05:26;;;;;;;11.35;5.70;;;;;;;;;;5037219;28;20032;-77
2022/04/13 14:07:54;;;;;;;10.48;5.63;;;;;;;;;;5036069;28;20107;-78
2022/04/13 14:10:20;;;;;;;13.20;6.35;;;;;;;;;;5035660;28;20029;-76
2022/04/13 14:12:46;;;;;;;17.13;5.60;;;;;;;;;;5035917;28;20075;-78
2022/04/13 14:15:11;;;;;;;11.55;5.63;;;;;;;;;;5036449;28;20455;-77
2022/04/13 14:17:41;;;;;;;13.70;6.28;;;;;;;;;;5035660;28;20029;-77
2022/04/13 14:20:08;;;;;;;9.60;5.40;;;;;;;;;;5035909;28;20033;-77
2022/04/13 14:22:34;;;;;;;11.68;5.68;;;;;;;;;;5034325;28;20048;-77
2022/04/13 14:25:01;;;;;;;11.30;5.32;;;;;;;;;;5035410;28;20037;-77
2022/04/13 14:27:26;;;;;;;12.90;5.50;;;;;;;;;;5035564;28;20394;-77
2022/04/13 14:29:52;;;;;;;12.68;5.78;;;;;;;;;;5034178;28;20025;-77
2022/04/13 14:32:17;;;;;;;12.98;6.18;;;;;;;;;;5035000;28;20487;-76
2022/04/13 14:34:42;;;;;;;15.60;5.80;;;;;;;;;;5035353;28;20033;-78
2022/04/13 14:37:08;;;;;;;15.30;6.68;;;;;;;;;;5034981;28;20285;-77